Time;durP1;ratioP1;P1;durP2;ratioP2;P2;SDS_P1;SDS_P2;PMS_P1;PMS_P2;Temp;Humidity;BMP_temperature;BMP_pressure;BME280_temperature;BME280_humidity;BME280_pressure;Samples;Min_cycle;Max_cycle;Signal;HPM_P1;HPM_P2
2023/06/05 00:01:38;;;;;;;6.65;2.67;;;15.20;76.80;;;;;;4980993;28;86664;-76
2023/06/05 00:04:04;;;;;;;9.10;1.88;;;15.20;76.90;;;;;;4984203;28;86297;-76
2023/06/05 00:06:31;;;;;;;9.13;2.47;;;15.10;76.70;;;;;;4981945;28;86966;-76
2023/06/05 00:08:57;;;;;;;5.57;2.30;;;15.10;77.30;;;;;;4981592;28;87517;-77
2023/06/05 00:11:23;;;;;;;6.00;2.45;;;15.10;77.80;;;;;;4982405;28;86476;-76
2023/06/05 00:13:49;;;;;;;6.60;2.10;;;15.00;78.10;;;;;;4982376;28;85981;-77
2023/06/05 00:16:15;;;;;;;5.50;1.90;;;15.00;78.20;;;;;;4983786;28;86042;-76
2023/06/05 00:18:45;;;;;;;7.57;2.25;;;15.00;78.50;;;;;;4981536;28;87528;-76
2023/06/05 00:21:15;;;;;;;6.32;1.92;;;14.90;78.80;;;;;;4982156;28;93901;-76
2023/06/05 00:23:41;;;;;;;5.72;2.28;;;14.90;79.30;;;;;;4980853;28;88234;-77
2023/06/05 00:26:06;;;;;;;4.68;2.30;;;14.90;78.60;;;;;;4983203;28;86026;-75
2023/06/05 00:28:33;;;;;;;4.07;1.98;;;14.80;80.10;;;;;;4981572;28;87949;-76
2023/06/05 00:30:59;;;;;;;7.45;2.33;;;14.80;80.30;;;;;;4982903;28;86669;-76
2023/06/05 00:33:26;;;;;;;9.95;2.42;;;14.70;80.60;;;;;;4983042;28;86393;-76
2023/06/05 00:35:52;;;;;;;5.38;2.78;;;14.70;81.00;;;;;;4982846;28;86475;-77
2023/06/05 00:38:18;;;;;;;5.97;2.58;;;14.70;80.50;;;;;;4982800;28;87720;-76
2023/06/05 00:40:43;;;;;;;9.52;2.50;;;14.70;80.60;;;;;;4982813;28;86575;-77
2023/06/05 00:43:09;;;;;;;14.68;2.70;;;14.60;80.40;;;;;;4984683;28;86309;-76
2023/06/05 00:45:35;;;;;;;4.47;2.03;;;14.60;81.00;;;;;;4982920;28;86396;-75
2023/06/05 00:48:01;;;;;;;6.55;2.65;;;14.60;81.20;;;;;;4982636;28;86610;-76
2023/06/05 00:50:26;;;;;;;6.43;3.10;;;14.60;82.00;;;;;;4980571;28;86623;-75
2023/06/05 00:52:53;;;;;;;6.20;2.75;;;14.50;81.70;;;;;;4981576;28;86296;-76
2023/06/05 00:55:19;;;;;;;7.80;2.80;;;14.40;82.20;;;;;;4980868;28;86227;-76
2023/06/05 00:57:45;;;;;;;6.95;2.97;;;14.40;82.80;;;;;;4979454;28;87490;-76
2023/06/05 01:00:14;;;;;;;3.42;2.10;;;14.30;83.20;;;;;;4980110;28;87109;-77
2023/06/05 01:02:41;;;;;;;7.03;2.80;;;14.30;82.60;;;;;;4982244;28;86270;-76
2023/06/05 01:05:07;;;;;;;5.68;2.83;;;14.30;83.20;;;;;;4981572;28;86434;-76
2023/06/05 01:07:37;;;;;;;7.05;2.45;;;14.20;83.50;;;;;;4979536;28;87520;-76
2023/06/05 01:10:08;;;;;;;5.50;2.60;;;14.20;83.10;;;;;;4980313;28;86502;-76
2023/06/05 01:12:42;;;;;;;7.50;3.13;;;14.20;83.50;;;;;;4980035;28;85702;-76
2023/06/05 01:15:08;;;;;;;8.60;2.63;;;14.10;83.90;;;;;;4980400;28;86118;-77
2023/06/05 01:17:34;;;;;;;4.28;2.58;;;14.10;83.80;;;;;;4977484;28;87124;-76
2023/06/05 01:20:09;;;;;;;8.10;2.75;;;14.00;84.30;;;;;;4986648;28;89817;-76
2023/06/05 01:22:37;;;;;;;10.10;2.95;;;14.00;84.20;;;;;;4982545;28;86903;-77
2023/06/05 01:25:07;;;;;;;5.18;2.95;;;14.00;84.00;;;;;;4983662;28;86462;-77
2023/06/05 01:27:57;;;;;;;5.55;2.58;;;13.90;85.00;;;;;;4982342;28;86422;-76
2023/06/05 01:31:01;;;;;;;8.98;3.08;;;13.90;85.00;;;;;;4981384;28;87482;-76
2023/06/05 01:33:30;;;;;;;5.43;2.63;;;13.80;85.20;;;;;;4982037;28;86372;-75
2023/06/05 01:36:04;;;;;;;5.07;2.90;;;13.80;84.90;;;;;;4983747;28;86475;-76
2023/06/05 01:38:34;;;;;;;8.50;2.63;;;13.70;85.40;;;;;;4979470;28;87022;-76
2023/06/05 01:41:01;;;;;;;7.78;2.85;;;13.70;85.30;;;;;;4982240;28;86321;-77
2023/06/05 01:43:26;;;;;;;10.90;3.28;;;13.70;85.50;;;;;;4983633;28;86359;-76
2023/06/05 01:45:56;;;;;;;6.70;2.85;;;13.60;86.00;;;;;;4985411;28;86324;-75
2023/06/05 01:48:27;;;;;;;8.23;3.38;;;13.60;85.50;;;;;;4985944;28;87160;-77
2023/06/05 01:50:56;;;;;;;6.93;2.90;;;13.60;86.40;;;;;;4983568;28;86717;-76
2023/06/05 01:53:21;;;;;;;8.85;3.17;;;13.60;85.60;;;;;;4984650;28;86487;-76
2023/06/05 01:55:48;;;;;;;4.55;2.70;;;13.50;86.10;;;;;;4984775;28;86377;-76
2023/06/05 01:58:15;;;;;;;8.38;3.25;;;13.50;85.20;;;;;;4982910;28;87005;-76
2023/06/05 02:00:42;;;;;;;4.95;2.70;;;13.40;86.10;;;;;;4981521;28;87736;-76
2023/06/05 02:03:07;;;;;;;6.60;3.22;;;13.40;86.50;;;;;;4983855;28;88402;-76
2023/06/05 02:05:33;;;;;;;8.48;2.90;;;13.30;86.90;;;;;;4980280;28;87642;-76
2023/06/05 02:08:04;;;;;;;13.13;3.97;;;13.30;86.70;;;;;;4981507;28;87527;-75
2023/06/05 02:10:31;;;;;;;5.05;2.30;;;13.20;86.60;;;;;;4985468;28;90489;-76
2023/06/05 02:12:57;;;;;;;9.65;3.40;;;13.20;87.00;;;;;;4983435;28;89903;-76
2023/06/05 02:15:22;;;;;;;8.15;3.60;;;13.20;87.50;;;;;;4983275;28;87856;-76
2023/06/05 02:17:53;;;;;;;6.18;3.08;;;13.10;87.70;;;;;;4983475;28;88004;-76
2023/06/05 02:20:25;;;;;;;5.07;2.97;;;13.10;87.10;;;;;;4982092;28;88726;-77
2023/06/05 02:22:51;;;;;;;5.53;2.65;;;13.10;87.10;;;;;;4987256;28;94915;-76
2023/06/05 02:25:21;;;;;;;5.90;2.53;;;13.00;86.50;;;;;;4983734;28;87557;-76
2023/06/05 02:27:47;;;;;;;4.68;2.70;;;13.00;87.00;;;;;;4983601;28;87940;-76
2023/06/05 02:30:13;;;;;;;7.78;3.00;;;13.00;88.00;;;;;;4981313;28;89311;-76
2023/06/05 02:32:43;;;;;;;12.52;3.47;;;12.90;88.40;;;;;;4977551;28;91472;-75
2023/06/05 02:35:10;;;;;;;7.18;3.47;;;12.90;88.40;;;;;;4968704;28;88380;-76
2023/06/05 02:37:43;;;;;;;6.43;3.03;;;12.80;88.60;;;;;;4980476;28;87361;-76
2023/06/05 02:40:13;;;;;;;7.82;3.42;;;12.80;89.20;;;;;;4982398;28;88876;-76
2023/06/05 02:42:39;;;;;;;6.93;3.17;;;12.80;89.40;;;;;;4981724;28;88920;-75
2023/06/05 02:45:05;;;;;;;6.95;3.65;;;12.70;89.30;;;;;;4981943;28;87862;-76
2023/06/05 02:47:31;;;;;;;7.63;3.45;;;12.60;89.50;;;;;;4982548;28;89295;-76
2023/06/05 02:49:57;;;;;;;8.25;3.50;;;12.60;90.00;;;;;;4983372;28;88682;-76
2023/06/05 02:52:24;;;;;;;7.80;3.38;;;12.60;90.10;;;;;;4981796;28;88208;-77
2023/06/05 02:54:50;;;;;;;9.73;4.07;;;12.50;89.60;;;;;;4984396;28;87452;-76
2023/06/05 02:57:17;;;;;;;7.38;3.90;;;12.50;90.10;;;;;;4980879;28;87711;-76
2023/06/05 02:59:45;;;;;;;9.15;3.95;;;12.50;90.30;;;;;;4980587;28;89433;-76
2023/06/05 03:02:11;;;;;;;9.38;3.55;;;12.50;90.40;;;;;;4980096;28;89138;-76
2023/06/05 03:04:40;;;;;;;6.82;3.90;;;12.50;90.40;;;;;;4981267;28;87773;-75
2023/06/05 03:07:07;;;;;;;10.10;3.72;;;12.40;90.30;;;;;;4983160;28;87429;-76
2023/06/05 03:09:33;;;;;;;7.97;4.47;;;12.40;90.30;;;;;;4981866;28;88850;-76
2023/06/05 03:11:59;;;;;;;10.27;3.92;;;12.40;90.60;;;;;;4982185;28;88105;-76
2023/06/05 03:14:26;;;;;;;12.10;3.90;;;12.30;90.40;;;;;;4982617;28;87857;-75
2023/06/05 03:16:53;;;;;;;6.85;3.90;;;12.30;90.10;;;;;;4982711;28;87296;-77
2023/06/05 03:19:19;;;;;;;8.25;4.05;;;12.30;90.20;;;;;;4981033;28;87682;-76
2023/06/05 03:21:45;;;;;;;8.10;3.35;;;12.30;90.70;;;;;;4981635;28;87835;-76
2023/06/05 03:24:15;;;;;;;8.45;3.90;;;12.20;90.50;;;;;;4982537;28;88538;-77
2023/06/05 03:26:41;;;;;;;6.82;4.20;;;12.20;90.70;;;;;;4982367;28;87626;-76
2023/06/05 03:29:08;;;;;;;9.85;4.53;;;12.20;90.80;;;;;;4981041;28;88759;-76
2023/06/05 03:31:35;;;;;;;8.35;4.22;;;12.10;90.70;;;;;;4981397;28;88525;-76
2023/06/05 03:34:02;;;;;;;11.07;4.32;;;12.10;90.90;;;;;;4982827;28;87767;-76
2023/06/05 03:36:28;;;;;;;8.55;3.95;;;12.10;91.10;;;;;;4981515;28;88120;-77
2023/06/05 03:38:55;;;;;;;10.35;4.57;;;12.10;90.70;;;;;;4980294;28;88680;-76
2023/06/05 03:41:21;;;;;;;5.93;3.95;;;12.00;91.30;;;;;;4983710;28;88305;-77
2023/06/05 03:43:49;;;;;;;10.82;3.72;;;12.00;90.80;;;;;;4979766;28;87668;-77
2023/06/05 03:46:18;;;;;;;13.30;4.78;;;12.00;91.20;;;;;;4980140;28;87703;-76
2023/06/05 03:48:45;;;;;;;8.60;4.00;;;12.00;91.20;;;;;;4979248;28;89085;-76
2023/06/05 03:51:11;;;;;;;8.25;4.45;;;12.00;91.10;;;;;;4994056;28;92412;-76
2023/06/05 03:53:39;;;;;;;10.30;4.70;;;12.00;91.20;;;;;;4980728;28;87497;-76
2023/06/05 03:56:08;;;;;;;9.52;4.88;;;11.90;91.30;;;;;;4981572;28;87570;-75
2023/06/05 03:58:34;;;;;;;7.25;4.90;;;12.00;91.30;;;;;;4982589;28;88242;-76
2023/06/05 04:01:00;;;;;;;8.45;4.47;;;12.00;91.10;;;;;;4980134;28;88075;-76
2023/06/05 04:03:27;;;;;;;10.43;4.90;;;12.00;91.10;;;;;;4982093;28;87454;-76
2023/06/05 04:05:52;;;;;;;5.82;3.83;;;11.90;91.20;;;;;;4975966;28;90770;-76
2023/06/05 04:08:18;;;;;;;9.02;4.63;;;11.90;91.00;;;;;;4969947;28;89216;-77
2023/06/05 04:10:44;;;;;;;8.13;5.13;;;11.90;91.10;;;;;;4980614;28;88509;-76
2023/06/05 04:13:10;;;;;;;11.93;5.55;;;11.90;91.40;;;;;;4982850;28;89048;-74
2023/06/05 04:15:36;;;;;;;6.30;4.60;;;11.90;91.40;;;;;;4981294;28;87651;-75
2023/06/05 04:18:02;;;;;;;9.80;4.60;;;11.90;91.20;;;;;;4983345;28;89103;-77
2023/06/05 04:20:28;;;;;;;7.07;4.75;;;12.00;91.10;;;;;;4981739;28;88566;-75
2023/06/05 04:22:53;;;;;;;12.30;5.40;;;12.00;91.10;;;;;;4982945;28;87441;-75
2023/06/05 04:25:19;;;;;;;10.07;5.35;;;12.00;91.20;;;;;;4981349;28;87997;-76
2023/06/05 04:27:48;;;;;;;11.85;5.13;;;12.00;91.40;;;;;;4981363;28;87703;-76
2023/06/05 04:30:13;;;;;;;7.63;4.97;;;12.10;91.60;;;;;;4981659;28;89021;-76
2023/06/05 04:32:41;;;;;;;10.95;5.32;;;12.10;91.30;;;;;;4980942;28;87612;-76
2023/06/05 04:35:10;;;;;;;10.63;4.70;;;12.10;91.50;;;;;;4978595;28;90943;-76
2023/06/05 04:37:37;;;;;;;10.32;5.00;;;12.10;91.30;;;;;;4979825;28;90095;-76
2023/06/05 04:40:09;;;;;;;10.07;5.72;;;12.10;91.50;;;;;;4979810;28;89267;-77
2023/06/05 04:42:36;;;;;;;10.27;5.57;;;12.20;91.60;;;;;;4976819;28;87908;-76
2023/06/05 04:45:04;;;;;;;9.68;5.50;;;12.20;91.40;;;;;;4973785;28;87614;-76
2023/06/05 04:47:31;;;;;;;9.25;6.00;;;12.30;91.40;;;;;;4979534;28;87724;-76
2023/06/05 04:50:03;;;;;;;16.23;6.10;;;12.30;91.40;;;;;;4980553;28;88326;-74
2023/06/05 04:52:30;;;;;;;10.23;5.97;;;12.30;91.40;;;;;;4980851;28;87510;-77
2023/06/05 04:54:57;;;;;;;9.48;5.55;;;12.30;91.30;;;;;;4978899;28;90714;-75
2023/06/05 04:57:24;;;;;;;7.32;5.50;;;12.40;91.20;;;;;;4975478;28;91564;-76
2023/06/05 04:59:50;;;;;;;11.40;5.32;;;12.50;91.00;;;;;;4973890;28;88927;-76
2023/06/05 05:02:16;;;;;;;9.82;5.20;;;12.50;91.00;;;;;;4979875;28;88698;-76
2023/06/05 05:04:42;;;;;;;8.65;6.07;;;12.50;91.00;;;;;;4980402;28;87903;-76
2023/06/05 05:07:13;;;;;;;12.23;6.25;;;12.60;91.00;;;;;;4980502;28;88633;-76
2023/06/05 05:09:38;;;;;;;8.13;6.30;;;12.70;91.10;;;;;;4978749;28;87792;-76
2023/06/05 05:12:04;;;;;;;9.25;5.53;;;12.70;91.00;;;;;;4981036;28;87940;-76
2023/06/05 05:14:30;;;;;;;11.02;5.88;;;12.80;90.70;;;;;;4979839;28;87556;-76
2023/06/05 05:16:56;;;;;;;11.05;6.32;;;12.80;90.70;;;;;;4980482;28;94180;-76
2023/06/05 05:19:24;;;;;;;10.23;6.22;;;12.90;90.70;;;;;;4982490;28;88332;-77
2023/06/05 05:21:50;;;;;;;10.43;5.90;;;13.00;90.40;;;;;;4980043;28;87975;-76
2023/06/05 05:24:15;;;;;;;11.63;6.10;;;13.00;90.30;;;;;;4981127;28;87537;-78
2023/06/05 05:26:41;;;;;;;10.82;6.25;;;13.10;90.30;;;;;;4989184;28;88644;-81
2023/06/05 05:29:07;;;;;;;12.07;6.50;;;13.20;90.30;;;;;;5259087;22;88451;-81
2023/06/05 05:31:34;;;;;;;10.82;5.97;;;13.30;90.20;;;;;;4996325;28;87090;-80
2023/06/05 05:34:00;;;;;;;9.85;5.85;;;13.30;89.70;;;;;;4999562;28;88046;-80
2023/06/05 05:36:26;;;;;;;9.35;5.70;;;13.40;89.50;;;;;;4998647;28;88717;-80
2023/06/05 05:38:52;;;;;;;10.90;6.78;;;13.50;88.90;;;;;;4999994;28;88139;-81
2023/06/05 05:41:18;;;;;;;9.63;5.82;;;13.60;88.70;;;;;;4995661;28;87557;-81
2023/06/05 05:43:44;;;;;;;9.25;5.72;;;13.70;88.60;;;;;;4993799;28;87139;-81
2023/06/05 05:46:10;;;;;;;9.80;5.82;;;13.70;88.20;;;;;;4999848;28;88238;-81
2023/06/05 05:48:37;;;;;;;9.63;6.60;;;13.90;87.80;;;;;;4997916;28;87392;-81
2023/06/05 05:51:05;;;;;;;11.82;6.25;;;13.90;87.60;;;;;;4995284;28;88079;-81
2023/06/05 05:53:31;;;;;;;11.82;6.60;;;14.00;87.10;;;;;;5000158;28;87779;-81
2023/06/05 05:55:57;;;;;;;11.32;6.30;;;14.10;86.90;;;;;;4998303;28;90388;-82
2023/06/05 06:01:01;;;;;;;11.52;6.18;;;14.30;85.70;;;;;;5322489;22;87633;-76
2023/06/05 06:03:27;;;;;;;9.77;6.20;;;14.40;85.60;;;;;;4953755;28;88050;-76
2023/06/05 06:05:53;;;;;;;10.02;6.85;;;14.40;85.80;;;;;;4955967;28;88026;-76
2023/06/05 06:08:20;;;;;;;14.10;6.15;;;14.50;85.00;;;;;;4954664;28;88319;-76
2023/06/05 06:10:45;;;;;;;9.82;6.13;;;14.60;84.60;;;;;;4954791;28;87747;-76
2023/06/05 06:13:11;;;;;;;12.00;7.00;;;14.70;84.60;;;;;;4956467;28;87882;-76
2023/06/05 06:15:38;;;;;;;17.20;6.65;;;14.80;83.70;;;;;;4971570;28;88471;-76
2023/06/05 06:18:05;;;;;;;10.70;6.75;;;14.90;83.20;;;;;;4974407;28;88981;-76
2023/06/05 06:20:31;;;;;;;11.35;6.75;;;15.00;83.60;;;;;;4966254;28;87820;-76
2023/06/05 06:22:57;;;;;;;12.57;6.30;;;15.10;82.70;;;;;;4959473;28;88243;-76
2023/06/05 06:27:49;;;;;;;16.38;7.18;;;15.30;82.90;;;;;;4976958;28;89089;-76
2023/06/05 06:30:15;;;;;;;11.18;6.85;;;15.40;81.70;;;;;;4960626;28;87581;-77
2023/06/05 06:32:41;;;;;;;9.77;6.43;;;15.50;81.70;;;;;;4959577;28;86799;-77
2023/06/05 06:35:07;;;;;;;11.40;5.90;;;15.60;81.10;;;;;;4958080;28;88470;-76
2023/06/05 06:37:33;;;;;;;10.82;6.32;;;15.70;81.00;;;;;;4958163;28;89289;-76
2023/06/05 06:39:59;;;;;;;14.98;6.40;;;15.90;80.40;;;;;;4958534;28;88417;-76
2023/06/05 06:42:26;;;;;;;11.23;6.30;;;16.00;80.20;;;;;;4958092;28;87717;-76
2023/06/05 06:44:55;;;;;;;9.35;6.32;;;16.10;78.90;;;;;;4969080;28;89512;-76
2023/06/05 06:47:22;;;;;;;12.05;6.40;;;16.20;78.30;;;;;;4969817;28;88532;-76
2023/06/05 06:49:47;;;;;;;12.57;6.03;;;16.30;78.10;;;;;;4962994;28;87096;-76
2023/06/05 06:52:13;;;;;;;12.10;6.30;;;16.40;78.30;;;;;;4978827;28;88211;-77
2023/06/05 06:54:38;;;;;;;11.52;6.60;;;16.60;76.30;;;;;;4960204;28;89265;-76
2023/06/05 06:57:05;;;;;;;14.15;6.47;;;16.70;77.50;;;;;;4970548;28;87813;-76
2023/06/05 06:59:30;;;;;;;11.65;6.38;;;16.90;76.00;;;;;;4960507;28;87242;-77
2023/06/05 07:02:11;;;;;;;8.52;6.15;;;17.00;75.30;;;;;;4961629;28;87600;-77
2023/06/05 07:04:37;;;;;;;13.95;6.07;;;17.00;74.30;;;;;;4972931;28;89525;-77
2023/06/05 07:07:03;;;;;;;10.15;5.80;;;17.20;76.50;;;;;;4958958;28;89160;-79
2023/06/05 07:09:29;;;;;;;15.20;5.97;;;17.40;75.10;;;;;;4973164;28;87522;-80
2023/06/05 07:11:54;;;;;;;10.68;5.75;;;17.60;74.50;;;;;;4977137;28;87625;-79
2023/06/05 07:14:21;;;;;;;9.63;5.90;;;17.70;73.80;;;;;;4967339;28;92012;-80
2023/06/05 07:16:48;;;;;;;9.35;5.50;;;17.90;73.70;;;;;;4973782;28;88161;-80
2023/06/05 07:19:15;;;;;;;12.38;6.70;;;18.10;70.90;;;;;;4958696;28;88105;-80
2023/06/05 07:21:41;;;;;;;5.45;4.40;;;18.10;71.30;;;;;;4957493;28;87977;-80
2023/06/05 07:24:07;;;;;;;8.18;4.80;;;18.10;72.30;;;;;;4962634;28;90515;-80
2023/06/05 07:26:33;;;;;;;10.70;5.18;;;18.30;70.80;;;;;;4981133;28;91575;-80
2023/06/05 07:28:59;;;;;;;9.73;5.30;;;18.50;71.00;;;;;;4963631;28;88613;-81
2023/06/05 07:31:25;;;;;;;9.07;5.22;;;18.60;69.10;;;;;;4967461;28;88118;-81
2023/06/05 07:33:51;;;;;;;8.88;5.68;;;18.90;67.40;;;;;;4975745;28;95768;-80
2023/06/05 07:36:17;;;;;;;8.10;5.35;;;19.00;68.90;;;;;;4962259;28;88796;-80
2023/06/05 07:38:43;;;;;;;9.40;5.70;;;19.10;68.60;;;;;;4957267;28;87731;-80
2023/06/05 07:41:10;;;;;;;9.23;5.38;;;19.20;68.80;;;;;;4962447;28;90552;-81
2023/06/05 07:43:40;;;;;;;10.82;5.82;;;19.30;67.00;;;;;;4956949;28;89725;-80
2023/06/05 07:46:06;;;;;;;9.00;4.88;;;19.50;67.70;;;;;;4957462;28;88551;-80
2023/06/05 07:48:31;;;;;;;13.45;5.35;;;19.60;66.80;;;;;;4973964;28;87650;-79
2023/06/05 07:50:57;;;;;;;9.35;5.28;;;19.80;66.40;;;;;;4976786;28;87634;-81
2023/06/05 07:53:22;;;;;;;8.07;5.85;;;20.00;65.90;;;;;;4968036;28;89536;-78
2023/06/05 07:55:48;;;;;;;9.05;5.72;;;20.10;64.80;;;;;;4975256;28;91777;-78
2023/06/05 07:58:16;;;;;;;17.40;6.15;;;20.20;63.60;;;;;;4977742;28;87661;-77
2023/06/05 08:00:43;;;;;;;10.65;5.63;;;20.30;63.30;;;;;;4976020;28;88293;-78
2023/06/05 08:03:10;;;;;;;8.45;5.38;;;20.30;62.60;;;;;;4976444;28;87928;-78
2023/06/05 08:05:35;;;;;;;10.93;5.15;;;20.30;62.80;;;;;;4961535;28;90982;-80
2023/06/05 08:08:02;;;;;;;9.02;5.35;;;20.50;64.10;;;;;;4957040;28;87537;-79
2023/06/05 08:10:28;;;;;;;9.90;5.43;;;20.80;62.60;;;;;;4956848;28;87807;-80
2023/06/05 08:12:53;;;;;;;11.93;5.50;;;21.00;62.80;;;;;;4957568;28;89256;-80
2023/06/05 08:15:19;;;;;;;6.75;5.38;;;21.10;62.30;;;;;;4962138;28;90389;-80
2023/06/05 08:17:44;;;;;;;8.45;5.90;;;21.20;59.70;;;;;;4964756;28;88581;-80
2023/06/05 08:20:10;;;;;;;12.57;5.32;;;21.30;59.80;;;;;;4966277;28;87611;-78
2023/06/05 08:22:39;;;;;;;8.85;5.20;;;21.40;60.70;;;;;;4974446;28;90290;-80
2023/06/05 08:25:06;;;;;;;12.75;5.65;;;21.70;60.60;;;;;;4968956;28;90491;-80
2023/06/05 08:27:32;;;;;;;36.25;6.20;;;21.70;59.70;;;;;;4975204;28;87959;-80
2023/06/05 08:29:59;;;;;;;10.10;5.10;;;21.70;59.10;;;;;;4963600;28;87875;-79
2023/06/05 08:32:25;;;;;;;10.15;5.65;;;21.90;59.40;;;;;;4962867;28;90267;-80
2023/06/05 08:34:51;;;;;;;10.02;5.07;;;21.90;59.30;;;;;;4982152;28;91386;-80
2023/06/05 08:37:16;;;;;;;5.60;3.95;;;22.10;59.20;;;;;;4983575;28;87651;-79
2023/06/05 08:39:42;;;;;;;10.30;5.55;;;22.40;59.30;;;;;;4982365;28;90026;-80
2023/06/05 08:42:10;;;;;;;8.48;5.78;;;22.70;57.50;;;;;;4975264;28;88737;-80
2023/06/05 08:44:36;;;;;;;7.10;4.78;;;22.70;56.30;;;;;;4973784;28;92217;-80
2023/06/05 08:47:03;;;;;;;10.02;5.20;;;22.90;56.70;;;;;;4975178;28;87648;-80
2023/06/05 08:49:29;;;;;;;9.68;4.65;;;23.10;57.20;;;;;;4982250;28;90306;-80
2023/06/05 08:52:04;;;;;;;9.90;5.13;;;23.40;57.40;;;;;;4976382;28;88328;-80
2023/06/05 08:54:40;;;;;;;11.10;4.97;;;23.60;55.90;;;;;;4975851;28;88095;-80
2023/06/05 08:57:07;;;;;;;7.70;4.68;;;23.70;54.70;;;;;;4950689;28;87940;-79
2023/06/05 08:59:33;;;;;;;9.30;5.22;;;23.80;54.80;;;;;;4962864;28;87425;-80
2023/06/05 09:02:00;;;;;;;8.18;4.80;;;24.00;53.90;;;;;;4971323;28;89663;-80
2023/06/05 09:04:29;;;;;;;13.45;4.47;;;24.10;53.80;;;;;;4947051;28;91193;-79
2023/06/05 09:07:01;;;;;;;10.65;4.18;;;24.20;53.50;;;;;;4974763;28;88896;-79
2023/06/05 09:09:27;;;;;;;10.75;5.07;;;24.30;53.50;;;;;;4958628;28;88698;-79
2023/06/05 09:12:08;;;;;;;7.63;4.32;;;24.60;52.90;;;;;;4955867;28;88303;-80
2023/06/05 09:14:35;;;;;;;9.77;5.30;;;24.50;52.10;;;;;;4964751;28;88294;-79
2023/06/05 09:17:02;;;;;;;6.78;5.03;;;24.50;51.50;;;;;;4970486;28;87798;-80
2023/06/05 09:19:38;;;;;;;10.10;6.13;;;24.80;53.40;;;;;;4956298;28;87921;-80
2023/06/05 09:22:06;;;;;;;6.65;4.72;;;25.00;52.00;;;;;;4974512;28;91455;-80
2023/06/05 09:24:32;;;;;;;8.25;4.97;;;25.10;52.20;;;;;;4958243;28;88291;-80
2023/06/05 09:27:00;;;;;;;10.23;4.03;;;25.40;51.00;;;;;;4966354;28;87535;-80
2023/06/05 09:29:31;;;;;;;6.38;3.95;;;25.60;50.60;;;;;;4974610;28;88031;-80
2023/06/05 09:31:58;;;;;;;8.60;4.80;;;25.90;50.30;;;;;;4973700;28;89342;-80
2023/06/05 09:34:27;;;;;;;10.70;5.38;;;26.30;49.80;;;;;;4975428;28;88865;-80
2023/06/05 09:36:54;;;;;;;7.57;3.78;;;26.60;49.40;;;;;;4973523;28;87731;-80
2023/06/05 09:39:21;;;;;;;8.20;4.60;;;26.80;49.00;;;;;;4958768;28;87697;-80
2023/06/05 09:41:48;;;;;;;7.05;4.07;;;26.90;47.40;;;;;;4966575;28;87442;-80
2023/06/05 09:44:15;;;;;;;6.45;3.40;;;27.00;48.10;;;;;;4966283;28;91303;-80
2023/06/05 09:47:08;;;;;;;10.32;4.28;;;26.90;48.70;;;;;;4954874;28;88077;-80
2023/06/05 09:49:42;;;;;;;8.27;4.13;;;27.20;47.30;;;;;;4955804;28;87430;-80
2023/06/05 09:52:10;;;;;;;6.65;4.07;;;27.30;48.80;;;;;;4956148;28;87724;-80
2023/06/05 09:54:47;;;;;;;6.90;4.32;;;27.30;46.70;;;;;;4973173;28;94885;-79
2023/06/05 09:57:14;;;;;;;10.40;4.38;;;27.10;47.40;;;;;;4958544;28;88980;-80
2023/06/05 09:59:54;;;;;;;9.20;3.25;;;27.20;46.80;;;;;;4964094;28;88107;-80
2023/06/05 10:02:23;;;;;;;10.70;3.95;;;27.60;47.50;;;;;;4970635;28;88744;-80
2023/06/05 10:04:53;;;;;;;6.05;4.55;;;27.60;44.60;;;;;;4958027;28;89019;-80
2023/06/05 10:07:19;;;;;;;8.80;4.50;;;27.70;44.70;;;;;;4959101;28;87523;-80
2023/06/05 10:09:49;;;;;;;5.28;4.18;;;27.70;46.50;;;;;;4972943;28;90409;-80
2023/06/05 10:12:15;;;;;;;11.38;4.85;;;27.80;45.60;;;;;;4958673;28;88200;-80
2023/06/05 10:14:42;;;;;;;9.93;4.20;;;28.00;44.00;;;;;;4969609;28;88403;-81
2023/06/05 10:17:10;;;;;;;7.50;3.35;;;28.10;43.90;;;;;;4969251;28;87468;-80
2023/06/05 10:19:36;;;;;;;11.07;4.10;;;28.10;45.30;;;;;;4969911;28;90466;-80
2023/06/05 10:22:02;;;;;;;4.13;3.15;;;28.10;42.10;;;;;;4978142;28;89204;-80
2023/06/05 10:24:35;;;;;;;7.55;3.83;;;28.00;45.20;;;;;;4961837;28;91532;-80
2023/06/05 10:27:12;;;;;;;5.80;3.80;;;28.30;44.00;;;;;;4958681;28;87121;-80
2023/06/05 10:29:47;;;;;;;8.27;3.42;;;28.30;43.30;;;;;;4968156;28;87260;-78
2023/06/05 10:32:41;;;;;;;3.90;3.00;;;28.40;43.20;;;;;;4974068;28;89286;-77
2023/06/05 10:35:36;;;;;;;6.10;3.10;;;28.80;44.50;;;;;;4970868;28;87759;-78
2023/06/05 10:38:22;;;;;;;4.47;2.70;;;29.30;43.50;;;;;;4964089;28;87694;-78
2023/06/05 10:41:03;;;;;;;4.05;2.33;;;29.40;41.40;;;;;;4977058;28;87259;-78
2023/06/05 10:43:44;;;;;;;5.68;2.90;;;29.50;42.00;;;;;;4977300;28;87978;-77
2023/06/05 10:46:30;;;;;;;3.92;2.53;;;29.70;41.30;;;;;;4957035;28;90355;-80
2023/06/05 10:49:07;;;;;;;8.70;3.20;;;30.10;41.00;;;;;;4977751;28;87947;-79
2023/06/05 10:51:39;;;;;;;5.72;3.10;;;29.80;37.70;;;;;;4959880;28;87845;-78
2023/06/05 10:54:15;;;;;;;3.92;3.03;;;29.40;40.50;;;;;;4957970;28;88505;-78
2023/06/05 10:57:02;;;;;;;6.28;2.78;;;29.50;40.80;;;;;;4967753;28;87712;-78
2023/06/05 10:59:39;;;;;;;4.35;2.40;;;29.60;39.30;;;;;;4976772;28;87327;-78
2023/06/05 11:02:14;;;;;;;3.50;2.33;;;29.70;39.60;;;;;;4971855;28;87667;-78
2023/06/05 11:04:43;;;;;;;4.88;2.17;;;29.90;40.60;;;;;;4956109;28;90294;-78
2023/06/05 11:07:28;;;;;;;5.85;2.17;;;30.10;40.70;;;;;;4958675;28;87386;-78
2023/06/05 11:10:04;;;;;;;9.35;2.55;;;30.60;41.90;;;;;;4975725;28;87875;-78
2023/06/05 11:12:39;;;;;;;2.75;2.50;;;30.90;39.00;;;;;;4959412;28;88542;-79
2023/06/05 11:15:23;;;;;;;3.33;1.98;;;30.60;39.30;;;;;;4970052;28;90011;-78
2023/06/05 11:17:48;;;;;;;5.60;2.35;;;30.70;39.30;;;;;;4964527;28;87527;-79
2023/06/05 11:20:23;;;;;;;6.30;2.17;;;31.30;38.70;;;;;;4957760;28;88173;-79
2023/06/05 11:23:09;;;;;;;3.92;1.92;;;31.70;37.20;;;;;;4960788;28;87444;-78
2023/06/05 11:25:36;;;;;;;6.63;1.40;;;31.80;36.50;;;;;;4976019;28;88402;-79
2023/06/05 11:28:04;;;;;;;7.35;1.67;;;31.90;37.50;;;;;;4955536;28;91651;-78
2023/06/05 11:30:38;;;;;;;3.20;1.63;;;32.10;36.40;;;;;;4957431;28;87828;-79
2023/06/05 11:33:19;;;;;;;3.10;1.60;;;32.30;35.60;;;;;;4962869;28;90744;-79
2023/06/05 11:35:46;;;;;;;3.78;1.40;;;32.40;36.70;;;;;;4976813;28;89248;-79
2023/06/05 11:38:16;;;;;;;3.70;1.67;;;32.20;36.00;;;;;;4970785;28;88311;-79
2023/06/05 11:40:43;;;;;;;3.30;1.48;;;32.30;34.80;;;;;;4959144;28;88402;-79
2023/06/05 11:43:11;;;;;;;3.92;2.10;;;32.50;35.90;;;;;;4975723;28;90660;-79
2023/06/05 11:45:41;;;;;;;2.78;1.50;;;32.80;36.20;;;;;;4959103;28;88718;-79
2023/06/05 11:48:09;;;;;;;9.13;1.50;;;32.50;35.30;;;;;;4957819;28;88614;-79
2023/06/05 11:50:40;;;;;;;2.22;1.10;;;32.40;33.70;;;;;;4963637;28;87682;-79
2023/06/05 11:53:10;;;;;;;4.80;1.30;;;32.60;36.60;;;;;;4962328;28;87721;-78
2023/06/05 11:58:40;;;;;;;2.90;1.30;;;33.20;34.10;;;;;;4956063;28;91980;-80
2023/06/05 12:01:17;;;;;;;3.95;1.73;;;33.50;33.10;;;;;;4977594;28;87622;-79
2023/06/05 12:03:44;;;;;;;3.63;1.40;;;33.40;34.70;;;;;;4955412;28;89659;-84
2023/06/05 12:06:14;;;;;;;5.55;2.10;;;33.50;32.80;;;;;;4970667;28;89615;-81
2023/06/05 12:08:40;;;;;;;3.50;1.80;;;33.60;31.80;;;;;;4964878;28;92315;-80
2023/06/05 12:11:26;;;;;;;2.10;1.58;;;33.60;34.40;;;;;;4956086;28;87802;-81
2023/06/05 12:13:56;;;;;;;3.30;2.13;;;33.30;33.90;;;;;;4957751;28;87853;-81
2023/06/05 12:16:35;;;;;;;4.78;1.65;;;33.30;35.50;;;;;;4956109;28;91011;-79
2023/06/05 12:19:11;;;;;;;3.15;1.60;;;33.40;34.50;;;;;;4975972;28;91797;-79
2023/06/05 12:21:37;;;;;;;2.35;1.08;;;33.70;34.60;;;;;;4957762;28;87341;-79
2023/06/05 12:24:04;;;;;;;5.07;1.35;;;33.90;35.60;;;;;;4956207;28;88184;-78
2023/06/05 12:26:47;;;;;;;4.50;1.50;;;34.30;33.70;;;;;;4964545;28;89345;-79
2023/06/05 12:29:13;;;;;;;2.80;1.55;;;34.30;31.50;;;;;;4969577;28;88372;-78
2023/06/05 12:31:39;;;;;;;8.20;1.50;;;34.30;31.50;;;;;;4956797;28;88690;-79
2023/06/05 12:34:05;;;;;;;5.35;1.38;;;34.60;32.30;;;;;;4975480;28;87878;-79
2023/06/05 12:36:38;;;;;;;1.35;1.13;;;34.70;34.40;;;;;;4957766;28;91907;-79
2023/06/05 12:39:05;;;;;;;5.05;1.27;;;34.60;33.40;;;;;;4969410;28;88461;-79
2023/06/05 12:41:31;;;;;;;3.42;1.08;;;35.00;31.50;;;;;;4966796;28;88217;-79
2023/06/05 12:44:01;;;;;;;3.65;1.42;;;34.90;30.60;;;;;;4957045;28;87220;-81
2023/06/05 12:46:28;;;;;;;2.38;1.00;;;34.90;33.50;;;;;;4947388;28;91443;-81
2023/06/05 12:48:54;;;;;;;2.67;1.20;;;34.50;31.10;;;;;;4957585;28;88304;-81
2023/06/05 12:51:20;;;;;;;3.38;1.13;;;34.80;32.60;;;;;;4956522;28;88780;-82
2023/06/05 12:53:46;;;;;;;3.22;1.30;;;34.80;31.00;;;;;;4954422;28;88980;-80
2023/06/05 12:56:11;;;;;;;5.22;1.23;;;34.70;33.00;;;;;;4962540;28;89906;-80
2023/06/05 12:58:37;;;;;;;1.75;1.13;;;34.70;31.10;;;;;;4972601;28;89740;-75